createdAt,value
2018-05-07T00:02:20.999Z,2.45
2018-05-07T00:04:48.588Z,2.58
2018-05-07T00:07:16.212Z,2.40
2018-05-07T00:09:43.827Z,2.73
2018-05-07T00:12:11.410Z,2.60
2018-05-07T00:14:39.030Z,2.35
2018-05-07T00:17:07.413Z,2.08
2018-05-07T00:19:35.759Z,2.80
2018-05-07T00:22:03.391Z,2.45
2018-05-07T00:24:30.980Z,2.40
2018-05-07T00:26:58.574Z,2.53
2018-05-07T00:29:26.184Z,2.60
2018-05-07T00:31:53.806Z,2.40
2018-05-07T00:34:21.672Z,2.25
2018-05-07T00:36:49.266Z,2.50
2018-05-07T00:39:17.618Z,2.50
2018-05-07T00:41:45.227Z,2.62
2018-05-07T00:44:13.574Z,2.50
2018-05-07T00:46:41.153Z,2.65
2018-05-07T00:49:08.772Z,2.70
2018-05-07T00:51:36.349Z,2.85
2018-05-07T00:54:03.960Z,2.67
2018-05-07T00:56:32.328Z,2.90
2018-05-07T00:58:59.937Z,2.87
2018-05-07T01:01:27.549Z,2.70
2018-05-07T01:03:55.154Z,2.80
2018-05-07T01:06:22.732Z,2.80
2018-05-07T01:08:51.101Z,2.73
2018-05-07T01:11:18.698Z,2.78
2018-05-07T01:13:46.307Z,2.30
2018-05-07T01:16:13.915Z,2.47
2018-05-07T01:18:41.558Z,2.45
2018-05-07T01:21:09.915Z,3.07
2018-05-07T01:23:37.548Z,2.70
2018-05-07T01:26:05.166Z,2.60
2018-05-07T01:28:33.508Z,2.70
2018-05-07T01:31:01.121Z,2.60
2018-05-07T01:33:29.466Z,2.70
2018-05-07T01:35:57.094Z,3.37
2018-05-07T01:38:24.671Z,2.50
2018-05-07T01:40:52.288Z,2.60
2018-05-07T01:43:19.867Z,2.70
2018-05-07T01:45:48.207Z,2.75
2018-05-07T01:48:16.585Z,2.90
2018-05-07T01:50:44.204Z,2.70
2018-05-07T01:53:12.547Z,2.60
2018-05-07T01:55:40.160Z,2.97
2018-05-07T01:58:07.737Z,2.70
2018-05-07T02:00:35.323Z,3.12
2018-05-07T02:03:02.929Z,2.90
2018-05-07T02:05:31.275Z,2.60
2018-05-07T02:07:58.880Z,2.60
2018-05-07T02:10:27.241Z,2.75
2018-05-07T02:12:54.858Z,2.62
2018-05-07T02:15:22.722Z,3.00
2018-05-07T02:17:50.311Z,2.77
2018-05-07T02:20:17.896Z,2.72
2018-05-07T02:22:45.523Z,3.00
2018-05-07T02:25:13.102Z,3.00
2018-05-07T02:27:40.737Z,3.10
2018-05-07T02:30:09.090Z,3.08
2018-05-07T02:32:36.699Z,3.20
2018-05-07T02:35:04.293Z,2.75
2018-05-07T02:37:31.910Z,3.27
2018-05-07T02:40:00.256Z,3.03
2018-05-07T02:42:27.836Z,2.90
2018-05-07T02:44:55.979Z,3.03
2018-05-07T02:47:23.563Z,3.20
2018-05-07T02:49:51.143Z,2.83
2018-05-07T02:52:18.775Z,3.10
2018-05-07T02:54:46.364Z,3.30
2018-05-07T02:57:13.954Z,2.90
2018-05-07T02:59:41.569Z,3.10
2018-05-07T03:02:09.177Z,3.00
2018-05-07T03:04:36.933Z,2.62
2018-05-07T03:07:04.473Z,3.10
2018-05-07T03:09:32.083Z,2.90
2018-05-07T03:11:59.723Z,2.90
2018-05-07T03:14:27.324Z,3.17
2018-05-07T03:16:55.696Z,2.62
2018-05-07T03:19:23.316Z,2.97
2018-05-07T03:21:50.921Z,2.60
2018-05-07T03:24:18.525Z,3.40
2018-05-07T03:26:46.155Z,2.70
2018-05-07T03:29:13.736Z,2.85
2018-05-07T03:31:42.328Z,2.97
2018-05-07T03:34:10.797Z,3.08
2018-05-07T03:36:38.407Z,2.75
2018-05-07T03:39:06.085Z,3.30
2018-05-07T03:41:33.721Z,2.93
2018-05-07T03:44:02.119Z,2.78
2018-05-07T03:46:29.747Z,3.17
2018-05-07T03:48:57.376Z,3.10
2018-05-07T03:51:25.007Z,2.70
2018-05-07T03:53:53.351Z,2.85
2018-05-07T03:56:20.991Z,3.03
2018-05-07T03:58:48.577Z,3.08
2018-05-07T04:01:16.205Z,3.23
2018-05-07T04:03:43.852Z,3.00
2018-05-07T04:06:12.243Z,2.90
2018-05-07T04:08:39.824Z,2.90
2018-05-07T04:11:07.445Z,3.00
2018-05-07T04:13:35.109Z,2.90
2018-05-07T04:16:02.676Z,3.00
2018-05-07T04:18:42.267Z,3.05
2018-05-07T04:21:16.496Z,3.30
2018-05-07T04:23:56.010Z,2.87
2018-05-07T04:26:23.659Z,3.12
2018-05-07T04:28:52.025Z,2.93
2018-05-07T04:31:20.457Z,3.53
2018-05-07T04:33:48.139Z,3.10
2018-05-07T04:36:15.728Z,3.25
2018-05-07T04:38:43.368Z,3.37
2018-05-07T04:41:10.991Z,3.27
2018-05-07T04:43:38.593Z,3.03
2018-05-07T04:46:06.224Z,3.70
2018-05-07T04:48:34.570Z,3.00
2018-05-07T04:51:02.213Z,3.50
2018-05-07T04:53:29.873Z,3.00
2018-05-07T04:55:57.495Z,3.50
2018-05-07T04:58:25.953Z,3.33
2018-05-07T05:00:53.564Z,3.23
2018-05-07T05:03:21.150Z,2.85
2018-05-07T05:05:48.790Z,3.45
2018-05-07T05:08:17.145Z,3.50
2018-05-07T05:10:44.807Z,3.10
2018-05-07T05:13:12.408Z,3.20
2018-05-07T05:15:40.756Z,2.90
2018-05-07T05:18:08.415Z,2.85
2018-05-07T05:20:36.000Z,3.05
2018-05-07T05:23:04.450Z,3.03
2018-05-07T05:25:32.043Z,3.23
2018-05-07T05:27:59.637Z,2.80
2018-05-07T05:30:27.286Z,2.92
2018-05-07T05:32:55.707Z,2.70
2018-05-07T05:35:23.320Z,2.70
2018-05-07T05:37:50.987Z,2.67
2018-05-07T05:40:19.295Z,2.55
2018-05-07T05:42:46.900Z,2.90
2018-05-07T05:45:14.550Z,2.70
2018-05-07T05:47:42.204Z,2.80
2018-05-07T05:50:09.949Z,2.65
2018-05-07T05:52:37.508Z,2.50
2018-05-07T05:55:05.964Z,2.80
2018-05-07T05:57:33.555Z,2.53
2018-05-07T06:00:01.194Z,2.55
2018-05-07T06:02:28.821Z,2.50
2018-05-07T06:04:56.474Z,2.60
2018-05-07T06:07:24.879Z,2.60
2018-05-07T06:09:52.481Z,2.30
2018-05-07T06:12:20.126Z,2.50
2018-05-07T06:14:47.793Z,1.95
2018-05-07T06:17:15.423Z,2.30
2018-05-07T06:19:43.796Z,2.10
2018-05-07T06:22:11.488Z,2.17
2018-05-07T06:24:39.136Z,2.30
2018-05-07T06:27:07.552Z,2.25
2018-05-07T06:29:35.222Z,2.10
2018-05-07T06:32:02.836Z,2.20
2018-05-07T06:34:30.442Z,2.03
2018-05-07T06:36:58.093Z,1.90
2018-05-07T06:39:26.514Z,1.90
2018-05-07T06:41:54.115Z,2.05
2018-05-07T06:44:21.794Z,1.80
2018-05-07T06:46:49.443Z,1.98
2018-05-07T06:49:17.828Z,2.17
2018-05-07T06:51:45.493Z,1.73
2018-05-07T06:54:13.143Z,1.80
2018-05-07T06:56:40.764Z,1.80
2018-05-07T06:59:08.404Z,2.03
2018-05-07T07:01:36.035Z,1.75
2018-05-07T07:04:03.679Z,2.00
2018-05-07T07:06:31.336Z,1.85
2018-05-07T07:08:59.755Z,1.57
2018-05-07T07:11:27.373Z,1.70
2018-05-07T07:13:55.798Z,1.80
2018-05-07T07:16:23.461Z,1.53
2018-05-07T07:18:51.071Z,1.40
2018-05-07T07:21:18.710Z,1.37
2018-05-07T07:23:46.438Z,1.60
2018-05-07T07:26:14.107Z,1.20
2018-05-07T07:28:41.705Z,1.53
2018-05-07T07:31:09.336Z,1.35
2018-05-07T07:33:37.923Z,1.50
2018-05-07T07:36:05.625Z,1.40
2018-05-07T07:38:33.283Z,1.40
2018-05-07T07:41:00.941Z,1.02
2018-05-07T07:43:28.552Z,1.37
2018-05-07T07:45:56.156Z,1.10
2018-05-07T07:48:24.551Z,1.02
2018-05-07T07:50:52.197Z,0.80
2018-05-07T07:53:20.613Z,0.90
2018-05-07T07:55:48.992Z,1.10
2018-05-07T07:58:16.632Z,0.87
2018-05-07T08:00:45.356Z,0.88
2018-05-07T08:03:13.012Z,1.00
2018-05-07T08:05:40.709Z,0.90
2018-05-07T08:08:08.318Z,1.00
2018-05-07T08:10:36.772Z,0.90
2018-05-07T08:13:04.394Z,0.75
2018-05-07T08:15:32.036Z,0.70
2018-05-07T08:18:00.406Z,0.80
2018-05-07T08:20:28.072Z,0.90
2018-05-07T08:22:55.698Z,0.70
2018-05-07T08:25:23.323Z,0.70
2018-05-07T08:27:51.712Z,0.70
2018-05-07T08:30:20.197Z,0.73
2018-05-07T08:32:48.085Z,0.73
2018-05-07T08:35:15.739Z,0.50
2018-05-07T08:37:44.103Z,0.70
2018-05-07T08:40:12.494Z,0.60
2018-05-07T08:42:40.888Z,0.60
2018-05-07T08:45:09.301Z,0.60
2018-05-07T08:47:36.901Z,0.70
2018-05-07T08:50:04.551Z,0.70
2018-05-07T08:52:32.162Z,0.70
2018-05-07T08:55:00.565Z,0.80
2018-05-07T08:57:28.280Z,0.70
2018-05-07T08:59:55.932Z,0.60
2018-05-07T09:02:23.546Z,0.65
2018-05-07T09:04:51.957Z,0.62
2018-05-07T09:07:19.598Z,0.60
2018-05-07T09:09:48.037Z,0.60
2018-05-07T09:12:15.657Z,0.50
2018-05-07T09:14:44.056Z,0.60
2018-05-07T09:17:11.691Z,0.73
2018-05-07T09:19:40.122Z,0.68
2018-05-07T09:22:07.846Z,0.53
2018-05-07T09:24:36.276Z,0.60
2018-05-07T09:27:03.933Z,0.50
2018-05-07T09:29:32.299Z,0.50
2018-05-07T09:32:00.690Z,0.60
2018-05-07T09:34:28.335Z,0.70
2018-05-07T09:36:56.796Z,0.62
2018-05-07T09:39:24.408Z,0.70
2018-05-07T09:41:52.060Z,0.57
2018-05-07T09:44:20.431Z,0.60
2018-05-07T09:46:48.835Z,0.50
2018-05-07T09:49:16.475Z,0.60
2018-05-07T09:51:44.865Z,0.55
2018-05-07T09:54:13.293Z,0.70
2018-05-07T09:56:52.852Z,0.70
2018-05-07T09:59:21.210Z,0.75
2018-05-07T10:01:48.835Z,0.50
2018-05-07T10:04:16.419Z,0.53
2018-05-07T10:06:44.810Z,0.47
2018-05-07T10:09:12.416Z,0.60
2018-05-07T10:11:40.076Z,0.60
2018-05-07T10:14:07.668Z,0.57
2018-05-07T10:16:35.322Z,0.47
2018-05-07T10:19:02.986Z,0.57
2018-05-07T10:21:30.859Z,0.70
2018-05-07T10:23:58.455Z,0.50
2018-05-07T10:26:26.072Z,0.70
2018-05-07T10:28:53.750Z,0.52
2018-05-07T10:31:22.338Z,0.60
2018-05-07T10:33:50.006Z,0.50
2018-05-07T10:36:17.673Z,0.50
2018-05-07T10:38:45.304Z,0.57
2018-05-07T10:41:13.105Z,0.70
2018-05-07T10:43:40.708Z,0.50
2018-05-07T10:46:09.083Z,0.73
2018-05-07T10:48:37.516Z,0.60
2018-05-07T10:51:05.121Z,0.50
2018-05-07T10:53:32.743Z,0.60
2018-05-07T10:56:00.399Z,0.75
2018-05-07T10:58:28.040Z,0.70
2018-05-07T11:00:55.642Z,0.80
2018-05-07T11:03:23.293Z,0.60
2018-05-07T11:05:50.951Z,0.65
2018-05-07T11:08:19.324Z,0.62
2018-05-07T11:10:47.760Z,0.53
2018-05-07T11:13:15.351Z,0.57
2018-05-07T11:15:43.000Z,0.70
2018-05-07T11:18:10.642Z,0.80
2018-05-07T11:20:38.270Z,0.70
2018-05-07T11:23:06.713Z,0.50
2018-05-07T11:25:34.358Z,0.62
2018-05-07T11:28:02.343Z,0.60
2018-05-07T11:30:29.956Z,0.75
2018-05-07T11:32:57.568Z,0.70
2018-05-07T11:35:25.245Z,0.67
2018-05-07T11:37:52.905Z,0.70
2018-05-07T11:40:20.597Z,0.70
2018-05-07T11:42:48.240Z,0.77
2018-05-07T11:45:15.908Z,0.60
2018-05-07T11:47:43.552Z,0.70
2018-05-07T11:50:11.941Z,0.60
2018-05-07T11:52:39.594Z,0.60
2018-05-07T11:55:08.031Z,0.75
2018-05-07T11:57:35.686Z,0.55
2018-05-07T12:00:03.340Z,0.70
2018-05-07T12:02:31.054Z,0.60
2018-05-07T12:04:58.667Z,0.60
2018-05-07T12:07:26.306Z,0.60
2018-05-07T12:09:55.053Z,0.70
2018-05-07T12:12:22.665Z,0.65
2018-05-07T12:14:50.402Z,0.70
2018-05-07T12:17:18.121Z,0.70
2018-05-07T12:19:45.728Z,0.62
2018-05-07T12:22:13.383Z,0.60
2018-05-07T12:24:41.022Z,0.50
2018-05-07T12:27:09.468Z,0.60
2018-05-07T12:29:37.880Z,0.60
2018-05-07T12:32:06.357Z,0.60
2018-05-07T12:34:34.794Z,0.60
2018-05-07T12:37:02.397Z,0.50
2018-05-07T12:39:29.998Z,0.60
2018-05-07T12:41:57.694Z,0.60
2018-05-07T12:44:25.648Z,0.65
2018-05-07T12:46:53.354Z,0.50
2018-05-07T12:49:21.021Z,0.55
2018-05-07T12:51:48.665Z,0.68
2018-05-07T12:54:16.319Z,0.62
2018-05-07T12:56:43.940Z,0.60
2018-05-07T12:59:12.442Z,0.60
2018-05-07T13:01:40.058Z,0.75
2018-05-07T13:04:07.700Z,0.60
2018-05-07T13:06:35.349Z,0.70
2018-05-07T13:09:03.054Z,0.70
2018-05-07T13:11:30.699Z,0.80
2018-05-07T13:13:58.347Z,0.90
2018-05-07T13:16:26.798Z,0.60
2018-05-07T13:18:55.202Z,0.60
2018-05-07T13:21:23.623Z,0.60
2018-05-07T13:23:51.251Z,0.75
2018-05-07T13:26:19.633Z,0.60
2018-05-07T13:28:47.283Z,0.57
2018-05-07T13:31:14.935Z,0.60
2018-05-07T13:33:42.535Z,0.70
2018-05-07T13:36:10.951Z,0.60
2018-05-07T13:38:38.620Z,0.67
2018-05-07T13:41:06.274Z,0.52
2018-05-07T13:43:34.685Z,0.50
2018-05-07T13:46:03.202Z,0.70
2018-05-07T13:48:30.886Z,0.68
2018-05-07T13:50:58.488Z,0.60
2018-05-07T13:53:26.150Z,0.60
2018-05-07T13:55:53.805Z,0.70
2018-05-07T13:58:21.459Z,0.70
2018-05-07T14:00:49.132Z,0.70
2018-05-07T14:03:16.770Z,0.70
2018-05-07T14:05:44.444Z,0.55
2018-05-07T14:08:12.884Z,0.50
2018-05-07T14:10:40.544Z,0.55
2018-05-07T14:13:08.156Z,0.67
2018-05-07T14:15:36.535Z,0.62
2018-05-07T14:18:04.998Z,0.70
2018-05-07T14:20:32.641Z,0.60
2018-05-07T14:23:00.313Z,0.80
2018-05-07T14:25:28.761Z,0.70
2018-05-07T14:27:56.449Z,0.80
2018-05-07T14:30:24.087Z,0.80
2018-05-07T14:32:52.085Z,0.70
2018-05-07T14:35:19.762Z,0.60
2018-05-07T14:37:47.375Z,0.62
2018-05-07T14:40:15.024Z,0.60
2018-05-07T14:42:42.620Z,0.68
2018-05-07T14:45:10.991Z,0.60
2018-05-07T14:47:38.649Z,0.60
2018-05-07T14:50:07.288Z,0.50
2018-05-07T14:52:34.988Z,0.68
2018-05-07T14:55:02.649Z,0.67
2018-05-07T14:57:30.258Z,0.62
2018-05-07T14:59:57.934Z,0.70
2018-05-07T15:02:25.602Z,0.55
2018-05-07T15:04:53.235Z,0.70
2018-05-07T15:07:20.845Z,0.60
2018-05-07T15:09:48.499Z,0.60
2018-05-07T15:12:16.935Z,0.55
2018-05-07T15:14:44.568Z,0.62
2018-05-07T15:17:12.216Z,0.70
2018-05-07T15:19:40.588Z,0.60
2018-05-07T15:22:09.022Z,0.45
2018-05-07T15:24:46.632Z,0.47
2018-05-07T15:27:14.251Z,0.52
2018-05-07T15:29:41.896Z,0.60
2018-05-07T15:32:10.425Z,0.67
2018-05-07T15:34:38.810Z,0.40
2018-05-07T15:37:06.516Z,0.60
2018-05-07T15:39:34.209Z,0.60
2018-05-07T15:42:02.620Z,0.70
2018-05-07T15:44:30.238Z,0.50
2018-05-07T15:46:57.899Z,0.70
2018-05-07T15:49:25.586Z,0.70
2018-05-07T15:51:53.191Z,0.60
2018-05-07T15:54:20.839Z,0.50
2018-05-07T15:56:48.497Z,0.62
2018-05-07T15:59:16.940Z,0.57
2018-05-07T16:01:44.575Z,0.55
2018-05-07T16:04:12.217Z,0.55
2018-05-07T16:06:39.883Z,0.60
2018-05-07T16:09:07.498Z,0.60
2018-05-07T16:11:35.137Z,0.70
2018-05-07T16:14:02.994Z,0.60
2018-05-07T16:16:31.465Z,0.70
2018-05-07T16:18:59.903Z,0.50
2018-05-07T16:21:27.782Z,0.70
2018-05-07T16:23:55.232Z,0.60
2018-05-07T16:26:22.877Z,0.43
2018-05-07T16:28:50.677Z,0.73
2018-05-07T16:31:18.369Z,0.60
2018-05-07T16:33:45.929Z,0.60
2018-05-07T16:36:13.589Z,0.90
2018-05-07T16:38:41.249Z,0.65
2018-05-07T16:41:09.219Z,0.70
2018-05-07T16:43:36.821Z,0.60
2018-05-07T16:46:05.269Z,0.70
2018-05-07T16:48:32.994Z,0.55
2018-05-07T16:51:00.642Z,0.60
2018-05-07T16:53:28.990Z,0.60
2018-05-07T16:55:56.632Z,0.50
2018-05-07T16:58:24.231Z,0.75
2018-05-07T17:00:51.859Z,0.65
2018-05-07T17:03:19.529Z,0.70
2018-05-07T17:05:47.117Z,0.80
2018-05-07T17:08:14.763Z,0.80
2018-05-07T17:10:43.130Z,0.68
2018-05-07T17:13:10.788Z,0.70
2018-05-07T17:15:39.143Z,0.82
2018-05-07T17:18:06.786Z,0.70
2018-05-07T17:20:34.384Z,0.80
2018-05-07T17:23:01.972Z,0.77
2018-05-07T17:25:30.387Z,0.80
2018-05-07T17:27:57.980Z,0.55
2018-05-07T17:30:25.598Z,1.15
2018-05-07T17:32:53.834Z,1.08
2018-05-07T17:35:21.464Z,1.08
2018-05-07T17:37:49.093Z,1.10
2018-05-07T17:40:17.447Z,0.90
2018-05-07T17:42:45.076Z,0.70
2018-05-07T17:45:25.242Z,1.10
2018-05-07T17:48:04.755Z,2.00
2018-05-07T17:50:32.355Z,2.80
2018-05-07T17:53:00.273Z,1.80
2018-05-07T17:55:28.643Z,1.70
2018-05-07T17:57:56.240Z,1.40
2018-05-07T18:00:24.108Z,1.47
2018-05-07T18:02:51.703Z,1.12
2018-05-07T18:05:19.295Z,1.00
2018-05-07T18:07:46.920Z,1.03
2018-05-07T18:10:14.555Z,0.90
2018-05-07T18:12:42.164Z,0.80
2018-05-07T18:15:09.766Z,0.87
2018-05-07T18:17:37.444Z,0.80
2018-05-07T18:20:05.168Z,0.73
2018-05-07T18:22:32.823Z,0.70
2018-05-07T18:25:00.436Z,0.90
2018-05-07T18:27:28.030Z,0.75
2018-05-07T18:29:56.817Z,0.90
2018-05-07T18:32:25.314Z,0.80
2018-05-07T18:34:52.877Z,0.90
2018-05-07T18:37:20.580Z,2.25
2018-05-07T18:39:48.269Z,3.47
2018-05-07T18:42:15.907Z,3.25
2018-05-07T18:44:43.584Z,2.83
2018-05-07T18:47:11.196Z,2.77
2018-05-07T18:49:39.569Z,2.78
2018-05-07T18:52:07.237Z,2.45
2018-05-07T18:54:35.656Z,2.42
2018-05-07T18:57:03.249Z,2.40
2018-05-07T18:59:30.831Z,2.20
2018-05-07T19:01:58.471Z,2.30
2018-05-07T19:04:26.833Z,1.90
2018-05-07T19:06:55.252Z,2.10
2018-05-07T19:09:22.855Z,1.97
2018-05-07T19:11:51.658Z,1.77
2018-05-07T19:14:20.295Z,1.67
2018-05-07T19:16:48.107Z,1.80
2018-05-07T19:19:15.768Z,1.65
2018-05-07T19:21:43.356Z,1.70
2018-05-07T19:24:10.947Z,1.60
2018-05-07T19:26:39.352Z,1.80
2018-05-07T19:29:06.952Z,1.55
2018-05-07T19:31:34.649Z,1.40
2018-05-07T19:34:03.011Z,1.37
2018-05-07T19:36:30.595Z,1.48
2018-05-07T19:38:58.994Z,1.30
2018-05-07T19:41:27.397Z,1.23
2018-05-07T19:43:55.008Z,1.17
2018-05-07T19:46:22.596Z,1.30
2018-05-07T19:48:50.980Z,1.23
2018-05-07T19:51:19.508Z,1.30
2018-05-07T19:53:47.146Z,1.42
2018-05-07T19:56:14.884Z,1.40
2018-05-07T19:58:42.655Z,1.40
2018-05-07T20:01:10.296Z,1.33
2018-05-07T20:03:38.306Z,1.45
2018-05-07T20:06:06.017Z,1.48
2018-05-07T20:08:33.714Z,1.40
2018-05-07T20:11:01.776Z,1.40
2018-05-07T20:13:29.419Z,1.20
2018-05-07T20:15:57.348Z,1.42
2018-05-07T20:18:24.955Z,1.50
2018-05-07T20:20:52.587Z,1.50
2018-05-07T20:23:21.019Z,1.50
2018-05-07T20:25:48.645Z,1.50
2018-05-07T20:28:17.031Z,1.52
2018-05-07T20:30:45.443Z,1.40
2018-05-07T20:33:13.179Z,1.40
2018-05-07T20:35:40.761Z,1.50
2018-05-07T20:38:09.181Z,1.40
2018-05-07T20:40:36.829Z,1.70
2018-05-07T20:43:04.419Z,1.30
2018-05-07T20:45:32.045Z,1.50
2018-05-07T20:48:00.486Z,1.50
2018-05-07T20:50:28.072Z,1.50
2018-05-07T20:52:56.491Z,1.42
2018-05-07T20:55:24.133Z,1.60
2018-05-07T20:57:52.519Z,1.62
2018-05-07T21:00:20.923Z,1.50
2018-05-07T21:02:48.579Z,1.40
2018-05-07T21:05:16.953Z,1.35
2018-05-07T21:07:45.327Z,1.70
2018-05-07T21:10:12.984Z,1.50
2018-05-07T21:12:40.624Z,1.52
2018-05-07T21:15:08.237Z,1.60
2018-05-07T21:17:36.602Z,1.60
2018-05-07T21:20:04.276Z,1.73
2018-05-07T21:22:31.865Z,1.33
2018-05-07T21:25:00.261Z,1.50
2018-05-07T21:27:27.896Z,1.55
2018-05-07T21:29:55.535Z,1.40
2018-05-07T21:32:23.159Z,1.40
2018-05-07T21:34:50.767Z,1.43
2018-05-07T21:37:18.565Z,1.58
2018-05-07T21:39:46.932Z,1.50
2018-05-07T21:42:14.523Z,1.30
2018-05-07T21:44:42.178Z,1.50
2018-05-07T21:47:10.457Z,1.70
2018-05-07T21:49:38.599Z,1.60
2018-05-07T21:52:06.253Z,1.50
2018-05-07T21:54:34.554Z,1.62
2018-05-07T21:57:02.179Z,1.50
2018-05-07T21:59:29.792Z,1.70
2018-05-07T22:01:58.164Z,1.42
2018-05-07T22:04:25.840Z,1.75
2018-05-07T22:06:53.489Z,1.48
2018-05-07T22:09:21.104Z,1.35
2018-05-07T22:11:49.409Z,1.60
2018-05-07T22:14:17.039Z,1.40
2018-05-07T22:16:44.643Z,1.50
2018-05-07T22:19:12.283Z,1.62
2018-05-07T22:21:39.923Z,1.60
2018-05-07T22:24:07.574Z,1.90
2018-05-07T22:26:35.210Z,1.80
2018-05-07T22:29:02.860Z,1.50
2018-05-07T22:31:30.539Z,1.83
2018-05-07T22:33:58.534Z,1.90
2018-05-07T22:36:26.157Z,1.70
2018-05-07T22:38:53.766Z,1.95
2018-05-07T22:41:21.413Z,1.80
2018-05-07T22:43:49.014Z,1.62
2018-05-07T22:46:16.741Z,1.62
2018-05-07T22:48:44.321Z,1.70
2018-05-07T22:51:11.976Z,1.60
2018-05-07T22:53:39.622Z,1.50
2018-05-07T22:56:08.065Z,1.80
2018-05-07T22:58:35.727Z,1.70
2018-05-07T23:01:03.375Z,1.90
2018-05-07T23:03:31.026Z,1.67
2018-05-07T23:05:58.651Z,1.80
2018-05-07T23:08:26.275Z,1.85
2018-05-07T23:10:54.622Z,1.77
2018-05-07T23:13:22.288Z,1.75
2018-05-07T23:15:50.678Z,1.80
2018-05-07T23:18:19.060Z,1.80
2018-05-07T23:20:47.468Z,1.80
2018-05-07T23:23:15.085Z,1.70
2018-05-07T23:25:42.746Z,1.50
2018-05-07T23:28:10.375Z,1.87
2018-05-07T23:30:38.003Z,1.63
2018-05-07T23:33:05.640Z,1.83
2018-05-07T23:35:33.276Z,1.90
2018-05-07T23:38:00.892Z,1.77
2018-05-07T23:40:28.534Z,1.90
2018-05-07T23:42:56.149Z,2.20
2018-05-07T23:45:24.562Z,2.10
2018-05-07T23:47:52.179Z,1.70
2018-05-07T23:50:20.569Z,1.80
2018-05-07T23:52:49.028Z,1.73
2018-05-07T23:55:16.620Z,1.80
2018-05-07T23:57:44.257Z,2.15
